Time,TemperatureF,DewpointF,PressureIn,WindDirection,WindDirectionDegrees,WindSpeedMPH,WindSpeedGustMPH,Humidity,HourlyPrecipIn,Conditions,Clouds,dailyrainin,SoftwareType,DateUTC
2013-03-19 00:00:00,49.9,41.6,30.03,South,191,0.0,0.0,73,0.00,CLR,,0.00,WeatherDisplay:10.37,2013-03-19 07:00:00,
2013-03-19 00:15:00,49.4,41.1,30.02,South,191,0.0,0.0,73,0.00,CLR,,0.00,WeatherDisplay:10.37,2013-03-19 07:15:00,
2013-03-19 00:30:00,48.8,40.9,30.03,South,191,0.0,0.0,74,0.00,CLR,,0.00,WeatherDisplay:10.37,2013-03-19 07:30:00,
2013-03-19 00:45:00,48.3,40.7,30.02,South,191,0.0,0.0,75,0.00,CLR,,0.00,WeatherDisplay:10.37,2013-03-19 07:45:00,
2013-03-19 01:00:00,47.7,40.5,30.02,South,191,0.0,0.0,76,0.00,CLR,,0.00,WeatherDisplay:10.37,2013-03-19 08:00:00,
2013-03-19 01:15:00,47.1,40.6,30.02,South,191,0.0,0.0,78,0.00,CLR,,0.00,WeatherDisplay:10.37,2013-03-19 08:15:00,
2013-03-19 01:30:00,46.4,39.9,30.02,South,191,0.0,0.0,78,0.00,CLR,,0.00,WeatherDisplay:10.37,2013-03-19 08:30:00,
2013-03-19 01:45:00,46.0,39.9,30.02,South,191,0.0,0.0,79,0.00,CLR,,0.00,WeatherDisplay:10.37,2013-03-19 08:45:00,
2013-03-19 02:00:00,45.7,39.6,30.02,South,191,0.0,0.0,79,0.00,CLR,,0.00,WeatherDisplay:10.37,2013-03-19 09:00:00,
2013-03-19 02:15:00,45.4,39.3,30.02,South,191,0.0,0.0,79,0.00,CLR,,0.00,WeatherDisplay:10.37,2013-03-19 09:15:00,
2013-03-19 02:30:00,45.1,39.3,30.02,South,191,0.0,0.0,80,0.00,CLR,,0.00,WeatherDisplay:10.37,2013-03-19 09:30:00,
2013-03-19 02:45:00,44.8,39.0,30.02,South,191,0.0,0.0,80,0.00,CLR,,0.00,WeatherDisplay:10.37,2013-03-19 09:45:00,
2013-03-19 03:00:00,44.5,39.0,30.01,South,191,0.0,0.0,81,0.00,CLR,,0.00,WeatherDisplay:10.37,2013-03-19 10:00:00,
2013-03-19 03:15:00,44.5,39.3,30.00,South,191,0.0,0.0,82,0.00,CLR,,0.00,WeatherDisplay:10.37,2013-03-19 10:15:00,
2013-03-19 03:30:00,44.3,39.2,30.00,South,191,0.0,0.0,82,0.00,CLR,,0.00,WeatherDisplay:10.37,2013-03-19 10:30:00,
2013-03-19 03:45:00,44.3,39.2,30.00,South,191,0.0,0.0,82,0.00,CLR,,0.00,WeatherDisplay:10.37,2013-03-19 10:45:00,
2013-03-19 04:00:00,44.2,39.1,29.99,South,191,0.0,0.0,82,0.00,CLR,,0.00,WeatherDisplay:10.37,2013-03-19 11:00:00,
2013-03-19 04:15:00,44.1,39.0,29.99,South,191,0.0,0.0,82,0.00,CLR,,0.00,WeatherDisplay:10.37,2013-03-19 11:15:00,
2013-03-19 04:30:00,43.8,39.0,29.98,South,191,0.0,0.0,83,0.00,CLR,,0.00,WeatherDisplay:10.37,2013-03-19 11:30:00,
2013-03-19 04:45:00,43.3,38.5,29.98,South,191,0.0,0.0,83,0.00,CLR,,0.00,WeatherDisplay:10.37,2013-03-19 11:45:00,
2013-03-19 05:00:00,43.1,38.3,29.99,South,191,0.0,0.0,83,0.00,CLR,,0.00,WeatherDisplay:10.37,2013-03-19 12:00:00,
2013-03-19 05:15:00,42.8,38.0,29.99,South,191,0.0,0.0,83,0.00,CLR,,0.00,WeatherDisplay:10.37,2013-03-19 12:15:00,
2013-03-19 05:30:00,42.5,37.7,29.99,South,191,0.0,0.0,83,0.00,CLR,,0.00,WeatherDisplay:10.37,2013-03-19 12:30:00,
2013-03-19 05:45:00,42.2,37.7,30.00,South,191,0.0,0.0,84,0.00,CLR,,0.00,WeatherDisplay:10.37,2013-03-19 12:45:00,
2013-03-19 06:00:00,41.9,37.4,30.00,South,191,0.0,0.0,84,0.00,CLR,,0.00,WeatherDisplay:10.37,2013-03-19 13:00:00,
2013-03-19 06:15:00,41.6,37.4,30.01,South,191,0.0,0.0,85,0.00,CLR,,0.00,WeatherDisplay:10.37,2013-03-19 13:15:00,
2013-03-19 06:30:00,41.3,37.1,30.01,South,191,0.0,0.0,85,0.00,CLR,,0.00,WeatherDisplay:10.37,2013-03-19 13:30:00,
2013-03-19 06:45:00,41.2,37.3,30.01,South,191,0.0,0.0,86,0.00,CLR,,0.00,WeatherDisplay:10.37,2013-03-19 13:45:00,
2013-03-19 07:00:00,41.1,37.2,30.01,South,191,0.0,0.0,86,0.00,CLR,,0.00,WeatherDisplay:10.37,2013-03-19 14:00:00,
2013-03-19 07:15:00,40.9,37.0,30.02,South,191,0.0,0.0,86,0.00,CLR,,0.00,WeatherDisplay:10.37,2013-03-19 14:15:00,
2013-03-19 07:30:00,40.8,37.2,30.02,South,191,0.0,0.0,87,0.00,CLR,,0.00,WeatherDisplay:10.37,2013-03-19 14:30:00,
2013-03-19 07:45:00,40.8,37.2,30.03,South,191,0.0,0.0,87,0.00,CLR,,0.00,WeatherDisplay:10.37,2013-03-19 14:45:00,
2013-03-19 08:00:00,40.9,37.4,30.03,South,191,0.0,0.0,87,0.00,CLR,,0.00,WeatherDisplay:10.37,2013-03-19 15:00:00,
2013-03-19 08:15:00,41.3,37.7,30.03,South,191,0.0,0.0,87,0.00,CLR,,0.00,WeatherDisplay:10.37,2013-03-19 15:15:00,
2013-03-19 08:30:00,41.8,38.5,30.04,South,191,0.0,0.0,88,0.00,CLR,,0.00,WeatherDisplay:10.37,2013-03-19 15:30:00,
2013-03-19 08:45:00,42.3,39.0,30.03,South,191,0.0,0.0,88,0.00,CLR,,0.00,WeatherDisplay:10.37,2013-03-19 15:45:00,
2013-03-19 09:00:00,43.1,39.8,30.04,South,191,0.0,0.0,88,0.00,CLR,,0.00,WeatherDisplay:10.37,2013-03-19 16:00:00,
2013-03-19 09:15:00,43.8,40.8,30.04,South,191,0.0,0.0,89,0.00,CLR,,0.00,WeatherDisplay:10.37,2013-03-19 16:15:00,
2013-03-19 09:30:00,44.5,41.5,30.03,South,191,0.0,0.0,89,0.00,CLR,,0.00,WeatherDisplay:10.37,2013-03-19 16:30:00,
2013-03-19 09:45:00,45.5,42.4,30.04,South,191,0.0,0.0,89,0.00,CLR,,0.00,WeatherDisplay:10.37,2013-03-19 16:45:00,
2013-03-19 10:00:00,47.3,44.2,30.04,South,191,0.0,0.0,89,0.00,CLR,,0.00,WeatherDisplay:10.37,2013-03-19 17:00:00,
2013-03-19 10:15:00,49.8,44.9,30.03,South,191,0.0,0.0,83,0.00,CLR,,0.00,WeatherDisplay:10.37,2013-03-19 17:15:00,
2013-03-19 10:30:00,52.0,46.0,30.04,South,191,0.0,0.0,80,0.00,CLR,,0.00,WeatherDisplay:10.37,2013-03-19 17:30:00,
2013-03-19 10:45:00,53.7,46.6,30.04,South,191,0.0,0.0,77,0.00,CLR,,0.00,WeatherDisplay:10.37,2013-03-19 17:45:00,
2013-03-19 11:00:00,55.0,46.5,30.03,South,191,0.0,0.0,73,0.00,CLR,,0.00,WeatherDisplay:10.37,2013-03-19 18:00:00,
2013-03-19 11:15:00,56.4,45.9,30.03,South,191,0.0,1.0,68,0.00,CLR,,0.00,WeatherDisplay:10.37,2013-03-19 18:15:00,
2013-03-19 11:30:00,58.6,45.6,30.03,South,191,0.0,1.0,62,0.00,CLR,,0.00,WeatherDisplay:10.37,2013-03-19 18:30:00,
2013-03-19 11:45:00,59.6,47.8,30.03,South,191,0.0,0.0,65,0.00,CLR,,0.00,WeatherDisplay:10.37,2013-03-19 18:45:00,
2013-03-19 12:00:00,60.3,45.0,30.03,SSW,213,1.0,3.0,57,0.00,CLR,,0.00,WeatherDisplay:10.37,2013-03-19 19:00:00,
2013-03-19 12:15:00,62.4,44.6,30.03,WNW,288,0.0,4.0,52,0.00,CLR,,0.00,WeatherDisplay:10.37,2013-03-19 19:15:00,
2013-03-19 12:30:00,63.9,44.9,30.02,West,281,0.0,1.0,50,0.00,CLR,,0.00,WeatherDisplay:10.37,2013-03-19 19:30:00,
2013-03-19 12:45:00,65.2,43.3,30.02,WSW,250,1.0,3.0,45,0.00,CLR,,0.00,WeatherDisplay:10.37,2013-03-19 19:45:00,
2013-03-19 13:00:00,66.1,44.7,30.02,West,279,0.0,2.0,46,0.00,CLR,,0.00,WeatherDisplay:10.37,2013-03-19 20:00:00,
2013-03-19 13:15:00,67.5,44.8,30.02,SW,217,0.0,4.0,44,0.00,CLR,,0.00,WeatherDisplay:10.37,2013-03-19 20:15:00,
2013-03-19 13:30:00,72.1,45.1,30.01,West,267,0.0,2.0,38,0.00,CLR,,0.00,WeatherDisplay:10.37,2013-03-19 20:30:00,
2013-03-19 13:45:00,72.9,47.2,30.00,WNW,285,1.0,3.0,40,0.00,CLR,,0.00,WeatherDisplay:10.37,2013-03-19 20:45:00,
2013-03-19 14:00:00,72.0,44.3,30.00,WNW,294,0.0,3.0,37,0.00,CLR,,0.00,WeatherDisplay:10.37,2013-03-19 21:00:00,
2013-03-19 14:15:00,72.0,45.0,30.00,WNW,296,1.0,4.0,38,0.00,CLR,,0.00,WeatherDisplay:10.37,2013-03-19 21:15:00,
2013-03-19 14:30:00,73.7,46.5,30.00,WNW,295,0.0,5.0,38,0.00,CLR,,0.00,WeatherDisplay:10.37,2013-03-19 21:30:00,
2013-03-19 14:45:00,73.9,43.0,30.00,WNW,294,1.0,5.0,33,0.00,CLR,,0.00,WeatherDisplay:10.37,2013-03-19 21:45:00,
2013-03-19 15:00:00,73.2,43.9,30.00,WNW,299,2.0,7.0,35,0.00,CLR,,0.00,WeatherDisplay:10.37,2013-03-19 22:00:00,
2013-03-19 15:15:00,71.4,42.3,30.00,WNW,291,2.0,5.0,35,0.00,CLR,,0.00,WeatherDisplay:10.37,2013-03-19 22:15:00,
2013-03-19 15:30:00,70.6,43.1,30.00,WNW,286,0.0,6.0,37,0.00,CLR,,0.00,WeatherDisplay:10.37,2013-03-19 22:30:00,
2013-03-19 15:45:00,70.4,43.6,30.00,WNW,289,0.0,2.0,38,0.00,CLR,,0.00,WeatherDisplay:10.37,2013-03-19 22:45:00,
2013-03-19 16:00:00,70.3,47.3,30.00,WNW,284,0.0,2.0,44,0.00,CLR,,0.00,WeatherDisplay:10.37,2013-03-19 23:00:00,
2013-03-19 16:15:00,69.6,44.2,30.00,ESE,103,0.0,1.0,40,0.00,CLR,,0.00,WeatherDisplay:10.37,2013-03-19 23:15:00,
2013-03-19 16:30:00,68.8,47.7,30.02,ESE,104,0.0,1.0,47,0.00,CLR,,0.00,WeatherDisplay:10.37,2013-03-19 23:30:00,
2013-03-19 16:45:00,67.4,45.3,30.02,SE,131,0.0,3.0,45,0.00,CLR,,0.00,WeatherDisplay:10.37,2013-03-19 23:45:00,
2013-03-19 17:00:00,66.0,45.2,30.04,SSE,156,0.0,3.0,47,0.00,CLR,,0.00,WeatherDisplay:10.37,2013-03-20 00:00:00,
2013-03-19 17:15:00,64.6,45.5,30.05,South,188,2.0,5.0,50,0.00,CLR,,0.00,WeatherDisplay:10.37,2013-03-20 00:15:00,
2013-03-19 17:30:00,63.1,37.7,30.06,ESE,119,1.0,10.0,39,0.00,CLR,,0.00,WeatherDisplay:10.37,2013-03-20 00:30:00,
2013-03-19 17:45:00,62.4,40.8,30.06,NE,51,0.0,4.0,45,0.00,CLR,,0.00,WeatherDisplay:10.37,2013-03-20 00:45:00,
2013-03-19 18:00:00,62.0,43.1,30.06,East,98,0.0,3.0,50,0.00,CLR,,0.00,WeatherDisplay:10.37,2013-03-20 01:00:00,
2013-03-19 18:15:00,60.7,43.0,30.07,ESE,116,0.0,4.0,52,0.00,CLR,,0.00,WeatherDisplay:10.37,2013-03-20 01:15:00,
2013-03-19 18:30:00,59.5,44.7,30.08,ESE,116,0.0,0.0,58,0.00,CLR,,0.00,WeatherDisplay:10.37,2013-03-20 01:30:00,
2013-03-19 18:45:00,57.6,45.5,30.09,ESE,116,0.0,1.0,64,0.00,CLR,,0.00,WeatherDisplay:10.37,2013-03-20 01:45:00,
2013-03-19 19:00:00,55.9,44.7,30.09,ESE,116,0.0,0.0,66,0.00,CLR,,0.00,WeatherDisplay:10.37,2013-03-20 02:00:00,
2013-03-19 19:15:00,54.4,46.3,30.08,ESE,116,0.0,0.0,74,0.01,RA,,0.02,WeatherDisplay:10.37,2013-03-20 02:15:00,
2013-03-19 19:30:00,53.1,47.4,30.07,ESE,116,0.0,0.0,81,0.02,RA,,0.04,WeatherDisplay:10.37,2013-03-20 02:30:00,
2013-03-19 19:45:00,52.2,48.1,30.07,ESE,116,0.0,0.0,86,0.01,RA,,0.05,WeatherDisplay:10.37,2013-03-20 02:45:00,
2013-03-19 20:00:00,51.9,48.2,30.06,ESE,116,0.0,0.0,87,0.01,RA,,0.06,WeatherDisplay:10.37,2013-03-20 03:00:00,
2013-03-19 20:15:00,51.7,48.6,30.05,ESE,116,0.0,0.0,89,0.01,RA,,0.07,WeatherDisplay:10.37,2013-03-20 03:15:00,
2013-03-19 20:30:00,51.7,48.6,30.05,ESE,116,0.0,0.0,89,0.00,CLR,,0.07,WeatherDisplay:10.37,2013-03-20 03:30:00,
2013-03-19 20:45:00,51.7,48.9,30.05,ESE,116,0.0,0.0,90,0.00,CLR,,0.07,WeatherDisplay:10.37,2013-03-20 03:45:00,
2013-03-19 21:00:00,51.7,48.9,30.05,ESE,116,0.0,0.0,90,0.00,CLR,,0.07,WeatherDisplay:10.37,2013-03-20 04:00:00,
2013-03-19 21:15:00,51.6,49.1,30.05,ESE,116,0.0,0.0,91,0.00,CLR,,0.07,WeatherDisplay:10.37,2013-03-20 04:15:00,
2013-03-19 21:30:00,51.6,49.1,30.05,ESE,116,0.0,0.0,91,0.00,CLR,,0.07,WeatherDisplay:10.37,2013-03-20 04:30:00,
2013-03-19 21:45:00,51.6,49.1,30.05,ESE,116,0.0,0.0,91,0.00,CLR,,0.07,WeatherDisplay:10.37,2013-03-20 04:45:00,
2013-03-19 22:00:00,51.6,49.1,30.05,ESE,116,0.0,0.0,91,0.00,CLR,,0.07,WeatherDisplay:10.37,2013-03-20 05:00:00,
2013-03-19 22:15:00,51.6,49.4,30.04,ESE,116,0.0,0.0,92,0.00,CLR,,0.07,WeatherDisplay:10.37,2013-03-20 05:15:00,
2013-03-19 22:30:00,51.4,49.2,30.04,ESE,116,0.0,0.0,92,0.00,CLR,,0.07,WeatherDisplay:10.37,2013-03-20 05:30:00,
2013-03-19 22:45:00,51.4,49.2,30.03,ESE,116,0.0,0.0,92,0.00,CLR,,0.07,WeatherDisplay:10.37,2013-03-20 05:45:00,
2013-03-19 23:00:00,51.3,49.1,30.02,ESE,116,0.0,0.0,92,0.00,CLR,,0.07,WeatherDisplay:10.37,2013-03-20 06:00:00,
2013-03-19 23:15:00,51.3,49.1,30.02,ESE,116,0.0,0.0,92,0.00,CLR,,0.07,WeatherDisplay:10.37,2013-03-20 06:15:00,
2013-03-19 23:30:00,51.3,49.1,30.02,ESE,116,0.0,0.0,92,0.00,CLR,,0.07,WeatherDisplay:10.37,2013-03-20 06:30:00,
2013-03-19 23:45:00,51.1,48.9,30.02,ESE,116,0.0,0.0,92,0.00,CLR,,0.07,WeatherDisplay:10.37,2013-03-20 06:45:00,